createdAt,value
2023-03-29T00:01:57.368Z,58.84
2023-03-29T00:04:29.867Z,58.99
2023-03-29T00:07:05.224Z,59.06
2023-03-29T00:09:34.483Z,59.33
2023-03-29T00:12:05.001Z,59.41
2023-03-29T00:15:07.224Z,59.58
2023-03-29T00:17:40.135Z,59.70
2023-03-29T00:20:18.006Z,59.85
2023-03-29T00:22:52.923Z,59.88
2023-03-29T00:25:22.875Z,59.93
2023-03-29T00:28:04.876Z,60.10
2023-03-29T00:30:37.951Z,60.17
2023-03-29T00:33:11.720Z,60.22
2023-03-29T00:35:43.306Z,60.17
2023-03-29T00:38:16.179Z,60.20
2023-03-29T00:40:52.327Z,60.19
2023-03-29T00:43:27.692Z,60.21
2023-03-29T00:46:03.278Z,60.32
2023-03-29T00:48:36.304Z,60.53
2023-03-29T00:51:21.549Z,60.50
2023-03-29T00:54:06.707Z,60.50
2023-03-29T00:56:53.373Z,60.59
2023-03-29T00:59:33.117Z,60.41
2023-03-29T01:02:09.733Z,60.49
2023-03-29T01:04:58.470Z,60.55
2023-03-29T01:07:38.436Z,60.79
2023-03-29T01:10:28.890Z,60.89
2023-03-29T01:13:13.692Z,60.89
2023-03-29T01:15:47.478Z,61.10
2023-03-29T01:18:25.856Z,61.16
2023-03-29T01:21:11.495Z,61.05
2023-03-29T01:24:07.427Z,61.11
2023-03-29T01:27:03.722Z,61.11
2023-03-29T01:29:45.008Z,61.26
2023-03-29T01:32:38.678Z,61.17
2023-03-29T01:35:31.368Z,61.25
2023-03-29T01:38:44.280Z,61.27
2023-03-29T01:41:23.179Z,61.44
2023-03-29T01:44:10.669Z,61.57
2023-03-29T01:47:00.722Z,61.69
2023-03-29T01:49:44.265Z,61.71
2023-03-29T01:52:37.322Z,61.75
2023-03-29T01:55:23.033Z,61.78
2023-03-29T01:58:00.087Z,61.81
2023-03-29T02:00:37.762Z,61.80
2023-03-29T02:03:19.605Z,61.86
2023-03-29T02:05:58.394Z,61.89
2023-03-29T02:08:37.409Z,61.97
2023-03-29T02:11:22.255Z,62.04
2023-03-29T02:13:57.269Z,62.01
2023-03-29T02:16:46.780Z,62.21
2023-03-29T02:19:25.792Z,62.30
2023-03-29T02:22:11.030Z,62.35
2023-03-29T02:24:54.000Z,62.37
2023-03-29T02:27:30.282Z,62.44
2023-03-29T02:30:02.713Z,62.46
2023-03-29T02:33:18.394Z,62.34
2023-03-29T02:36:52.250Z,62.48
2023-03-29T02:39:33.289Z,62.66
2023-03-29T02:42:36.836Z,62.61
2023-03-29T02:45:18.448Z,62.61
2023-03-29T02:47:57.086Z,62.60
2023-03-29T02:50:56.780Z,62.50
2023-03-29T02:53:47.044Z,62.58
2023-03-29T02:56:27.999Z,62.59
2023-03-29T02:59:09.743Z,62.60
2023-03-29T03:01:45.858Z,62.67
2023-03-29T03:04:21.180Z,62.60
2023-03-29T03:06:56.975Z,62.50
2023-03-29T03:09:32.162Z,62.51
2023-03-29T03:12:04.678Z,62.61
2023-03-29T03:14:36.761Z,62.72
2023-03-29T03:17:07.816Z,62.81
2023-03-29T03:19:47.975Z,62.82
2023-03-29T03:22:24.613Z,62.85
2023-03-29T03:25:02.458Z,62.82
2023-03-29T03:27:38.593Z,62.72
2023-03-29T03:30:18.134Z,62.55
2023-03-29T03:33:27.274Z,62.72
2023-03-29T03:36:35.188Z,62.88
2023-03-29T03:39:08.598Z,62.91
2023-03-29T03:41:46.500Z,62.95
2023-03-29T03:44:33.558Z,62.95
2023-03-29T03:47:23.516Z,63.03
2023-03-29T03:49:54.486Z,63.07
2023-03-29T03:52:33.813Z,63.11
2023-03-29T03:55:09.151Z,63.24
2023-03-29T03:57:49.917Z,63.28
2023-03-29T04:00:22.595Z,63.34
2023-03-29T04:02:59.613Z,63.36
2023-03-29T04:05:34.818Z,63.51
2023-03-29T04:08:07.882Z,63.46
2023-03-29T04:10:58.677Z,63.39
2023-03-29T04:13:39.069Z,63.34
2023-03-29T04:16:32.571Z,63.44
2023-03-29T04:19:13.178Z,63.52
2023-03-29T04:21:46.116Z,63.53
2023-03-29T04:24:17.610Z,63.56
2023-03-29T04:26:56.806Z,63.58
2023-03-29T04:29:35.908Z,63.77
2023-03-29T04:32:22.749Z,63.77
2023-03-29T04:35:06.936Z,63.68
2023-03-29T04:37:45.291Z,63.75
2023-03-29T04:40:20.839Z,63.75
2023-03-29T04:43:06.578Z,63.59
2023-03-29T04:45:43.388Z,63.56
2023-03-29T04:48:21.151Z,63.56
2023-03-29T04:51:03.647Z,63.56
2023-03-29T04:53:43.210Z,63.39
2023-03-29T04:56:17.814Z,63.22
2023-03-29T04:59:17.321Z,63.29
2023-03-29T05:01:48.069Z,63.36
2023-03-29T05:04:22.284Z,63.42
2023-03-29T05:07:23.778Z,63.47
2023-03-29T05:10:10.893Z,63.46
2023-03-29T05:13:03.259Z,63.39
2023-03-29T05:15:46.682Z,63.33
2023-03-29T05:18:18.680Z,63.35
2023-03-29T05:20:56.144Z,63.22
2023-03-29T05:23:31.320Z,63.04
2023-03-29T05:26:15.588Z,63.03
2023-03-29T05:28:59.015Z,63.17
2023-03-29T05:31:32.915Z,62.94
2023-03-29T05:34:10.331Z,62.78
2023-03-29T05:36:53.700Z,62.72
2023-03-29T05:39:29.412Z,62.49
2023-03-29T05:42:03.540Z,62.40
2023-03-29T05:44:47.834Z,62.26
2023-03-29T05:47:28.975Z,62.19
2023-03-29T05:50:10.803Z,61.95
2023-03-29T05:52:49.992Z,61.94
2023-03-29T05:55:25.777Z,61.86
2023-03-29T05:57:58.773Z,61.72
2023-03-29T06:00:34.873Z,61.54
2023-03-29T06:03:25.650Z,61.10
2023-03-29T06:06:20.629Z,60.92
2023-03-29T06:08:54.135Z,60.83
2023-03-29T06:11:41.259Z,60.64
2023-03-29T06:14:35.986Z,59.87
2023-03-29T06:17:39.963Z,59.87
2023-03-29T06:20:17.431Z,59.36
2023-03-29T06:22:52.896Z,59.00
2023-03-29T06:25:26.117Z,58.74
2023-03-29T06:28:01.627Z,58.75
2023-03-29T06:30:35.274Z,59.31
2023-03-29T06:33:11.728Z,59.11
2023-03-29T06:36:14.114Z,58.55
2023-03-29T06:38:46.346Z,58.19
2023-03-29T06:41:30.639Z,57.13
2023-03-29T06:44:20.231Z,56.44
2023-03-29T06:47:02.184Z,54.73
2023-03-29T06:49:37.531Z,53.79
2023-03-29T06:52:23.103Z,52.10
2023-03-29T06:54:57.546Z,51.58
2023-03-29T06:57:36.620Z,50.72
2023-03-29T07:00:32.515Z,50.06
2023-03-29T07:03:20.404Z,49.43
2023-03-29T07:06:16.607Z,47.58
2023-03-29T07:08:54.603Z,48.25
2023-03-29T07:11:40.539Z,47.24
2023-03-29T07:14:31.536Z,45.43
2023-03-29T07:17:12.263Z,44.89
2023-03-29T07:19:55.135Z,44.79
2023-03-29T07:23:10.837Z,42.16
2023-03-29T07:26:00.523Z,41.62
2023-03-29T07:28:40.864Z,41.35
2023-03-29T07:31:28.281Z,41.05
2023-03-29T07:34:08.707Z,39.50
2023-03-29T07:37:04.090Z,38.89
2023-03-29T07:39:45.465Z,38.08
2023-03-29T07:42:43.675Z,37.83
2023-03-29T07:45:30.046Z,37.58
2023-03-29T07:48:35.487Z,36.48
2023-03-29T07:51:17.170Z,36.75
2023-03-29T07:54:16.158Z,36.89
2023-03-29T07:57:27.588Z,36.34
2023-03-29T08:00:22.458Z,35.88
2023-03-29T08:03:30.355Z,36.59
2023-03-29T08:06:11.831Z,36.81
2023-03-29T08:09:02.242Z,36.69
2023-03-29T08:11:43.414Z,35.79
2023-03-29T08:14:38.112Z,35.30
2023-03-29T08:17:40.162Z,35.09
2023-03-29T08:20:40.685Z,34.48
2023-03-29T08:23:14.447Z,34.45
2023-03-29T08:26:23.964Z,34.65
2023-03-29T08:28:57.680Z,34.38
2023-03-29T08:31:29.684Z,34.34
2023-03-29T08:34:03.804Z,33.38
2023-03-29T08:37:01.115Z,32.06
2023-03-29T08:39:42.125Z,31.12
2023-03-29T08:43:04.355Z,30.89
2023-03-29T08:46:16.753Z,30.91
2023-03-29T08:49:07.586Z,31.16
2023-03-29T08:51:53.482Z,29.70
2023-03-29T08:54:49.073Z,28.92
2023-03-29T08:57:48.339Z,28.90
2023-03-29T09:00:43.487Z,28.73
2023-03-29T09:03:31.880Z,28.05
2023-03-29T09:06:18.494Z,27.27
2023-03-29T09:09:00.796Z,27.00
2023-03-29T09:11:51.068Z,26.49
2023-03-29T09:14:30.647Z,26.23
2023-03-29T09:17:31.975Z,25.37
2023-03-29T09:20:24.060Z,25.76
2023-03-29T09:23:47.899Z,24.99
2023-03-29T09:30:56.845Z,25.12
2023-03-29T09:34:10.586Z,24.99
2023-03-29T09:37:21.733Z,25.38
2023-03-29T09:40:04.649Z,25.60
2023-03-29T09:42:55.552Z,25.60
2023-03-29T09:45:53.376Z,25.97
2023-03-29T09:48:41.278Z,25.61
2023-03-29T09:51:18.127Z,25.59
2023-03-29T09:53:50.396Z,25.35
2023-03-29T09:56:47.116Z,25.03
2023-03-29T09:59:25.324Z,24.92
2023-03-29T10:02:14.942Z,24.86
2023-03-29T10:04:48.389Z,24.50
2023-03-29T10:07:21.045Z,24.58
2023-03-29T10:09:57.882Z,24.85
2023-03-29T10:12:37.236Z,24.35
2023-03-29T10:15:26.612Z,24.05
2023-03-29T10:18:15.056Z,24.19
2023-03-29T10:20:48.421Z,24.21
2023-03-29T10:23:22.368Z,23.32
2023-03-29T10:26:04.577Z,23.39
2023-03-29T10:28:40.515Z,23.94
2023-03-29T10:31:25.899Z,24.50
2023-03-29T10:34:11.950Z,25.11
2023-03-29T10:36:50.617Z,24.89
2023-03-29T10:39:20.929Z,24.96
2023-03-29T10:41:53.513Z,25.19
2023-03-29T10:44:36.914Z,25.31
2023-03-29T10:47:29.130Z,25.61
2023-03-29T10:49:59.249Z,25.63
2023-03-29T10:52:30.410Z,25.55
2023-03-29T10:55:02.819Z,25.34
2023-03-29T10:58:16.619Z,25.54
2023-03-29T11:01:00.752Z,25.42
2023-03-29T11:04:17.454Z,26.42
2023-03-29T11:07:26.544Z,26.60
2023-03-29T11:10:34.793Z,27.00
2023-03-29T11:13:34.788Z,27.24
2023-03-29T11:16:58.255Z,27.34
2023-03-29T11:20:17.857Z,27.55
2023-03-29T11:23:16.650Z,27.88
2023-03-29T11:26:23.846Z,28.15
2023-03-29T11:29:11.796Z,28.37
2023-03-29T11:32:28.095Z,28.21
2023-03-29T11:35:29.739Z,28.51
2023-03-29T11:38:47.910Z,28.74
2023-03-29T11:41:44.376Z,28.70
2023-03-29T11:44:40.143Z,28.87
2023-03-29T11:47:35.404Z,29.32
2023-03-29T11:50:59.529Z,29.58
2023-03-29T11:53:52.236Z,29.83
2023-03-29T11:57:07.037Z,29.73
2023-03-29T12:00:20.090Z,30.05
2023-03-29T12:05:50.549Z,30.57
2023-03-29T12:08:47.531Z,30.69
2023-03-29T12:11:49.094Z,30.37
2023-03-29T12:14:30.144Z,30.67
2023-03-29T12:17:10.830Z,30.58
2023-03-29T12:28:12.196Z,30.42
2023-03-29T12:31:06.611Z,30.88
2023-03-29T12:38:10.289Z,31.56
2023-03-29T12:41:25.653Z,31.34
2023-03-29T12:44:32.329Z,31.38
2023-03-29T12:47:34.681Z,31.62
2023-03-29T12:50:32.387Z,31.54
2023-03-29T12:53:27.893Z,31.25
2023-03-29T12:56:04.793Z,31.11
2023-03-29T12:58:43.527Z,31.41
2023-03-29T13:01:37.917Z,31.69
2023-03-29T13:04:21.709Z,31.97
2023-03-29T13:07:09.034Z,31.68
2023-03-29T13:10:08.365Z,31.98
2023-03-29T13:12:51.608Z,32.04
2023-03-29T13:15:41.766Z,32.15
2023-03-29T13:19:18.636Z,32.44
2023-03-29T13:22:08.686Z,32.85
2023-03-29T13:25:41.773Z,33.07
2023-03-29T13:28:47.480Z,33.15
2023-03-29T13:31:35.789Z,33.33
2023-03-29T13:34:20.725Z,33.58
2023-03-29T13:37:21.361Z,33.87
2023-03-29T13:39:56.937Z,33.82
2023-03-29T13:42:46.751Z,33.28
2023-03-29T13:45:33.206Z,33.39
2023-03-29T13:48:34.302Z,33.48
2023-03-29T13:51:35.549Z,33.51
2023-03-29T13:54:43.089Z,33.83
2023-03-29T13:58:02.102Z,34.10
2023-03-29T14:00:54.520Z,34.44
2023-03-29T14:03:50.263Z,34.33
2023-03-29T14:06:35.059Z,34.28
2023-03-29T14:09:09.715Z,34.09
2023-03-29T14:12:08.315Z,33.78
2023-03-29T14:14:51.709Z,33.68
2023-03-29T14:17:37.313Z,33.66
2023-03-29T14:20:10.297Z,33.68
2023-03-29T14:23:03.133Z,33.61
2023-03-29T14:26:09.130Z,33.41
2023-03-29T14:29:07.819Z,33.16
2023-03-29T14:31:52.374Z,33.57
2023-03-29T14:34:39.822Z,33.61
2023-03-29T14:37:37.524Z,33.64
2023-03-29T14:40:45.627Z,33.88
2023-03-29T14:43:39.993Z,34.13
2023-03-29T14:46:49.024Z,34.31
2023-03-29T14:50:05.462Z,34.67
2023-03-29T14:52:52.629Z,35.07
2023-03-29T14:55:56.401Z,35.23
2023-03-29T14:58:46.878Z,35.21
2023-03-29T15:01:49.021Z,34.74
2023-03-29T15:04:36.556Z,34.77
2023-03-29T15:09:07.251Z,34.78
2023-03-29T15:11:42.598Z,35.17
2023-03-29T15:15:04.235Z,35.33
2023-03-29T15:17:56.973Z,35.47
2023-03-29T15:21:07.732Z,35.33
2023-03-29T15:24:07.821Z,35.42
2023-03-29T15:27:03.364Z,35.50
2023-03-29T15:29:51.768Z,35.34
2023-03-29T15:32:55.040Z,35.32
2023-03-29T15:36:03.691Z,35.60
2023-03-29T15:39:05.929Z,35.81
2023-03-29T15:41:42.038Z,35.99
2023-03-29T15:44:53.271Z,36.34
2023-03-29T15:47:36.814Z,36.55
2023-03-29T15:50:31.750Z,36.62
2023-03-29T15:53:19.432Z,36.79
2023-03-29T15:57:31.467Z,36.86
2023-03-29T16:00:44.710Z,37.03
2023-03-29T16:03:55.459Z,37.19
2023-03-29T16:06:53.339Z,37.41
2023-03-29T16:09:30.244Z,37.44
2023-03-29T16:12:23.738Z,37.47
2023-03-29T16:15:01.053Z,37.61
2023-03-29T16:17:52.416Z,37.80
2023-03-29T16:21:17.640Z,37.93
2023-03-29T16:24:17.483Z,37.99
2023-03-29T16:26:56.992Z,38.23
2023-03-29T16:29:41.036Z,38.28
2023-03-29T16:36:10.759Z,38.47
2023-03-29T16:38:54.400Z,38.61
2023-03-29T16:41:39.514Z,38.76
2023-03-29T16:45:01.252Z,38.87
2023-03-29T16:48:09.993Z,39.08
2023-03-29T16:50:55.956Z,39.15
2023-03-29T16:54:43.903Z,39.23
2023-03-29T16:57:53.243Z,39.54
2023-03-29T17:03:36.915Z,39.74
2023-03-29T17:06:50.014Z,39.87
2023-03-29T17:09:32.771Z,39.90
2023-03-29T17:12:18.931Z,40.01
2023-03-29T17:18:03.220Z,40.41
2023-03-29T17:21:25.118Z,40.46
2023-03-29T17:24:14.827Z,40.69
2023-03-29T17:27:34.535Z,40.75
2023-03-29T17:30:22.589Z,41.08
2023-03-29T17:33:11.133Z,41.20
2023-03-29T17:39:45.542Z,41.75
2023-03-29T17:42:30.136Z,41.94
2023-03-29T17:45:29.879Z,42.10
2023-03-29T17:48:26.157Z,42.29
2023-03-29T17:51:26.603Z,42.32
2023-03-29T17:55:17.013Z,42.67
2023-03-29T18:01:54.765Z,42.81
2023-03-29T18:05:08.499Z,43.19
2023-03-29T18:09:48.429Z,43.39
2023-03-29T18:13:27.235Z,43.55
2023-03-29T18:33:46.070Z,44.86
2023-03-29T18:43:38.758Z,45.37
2023-03-29T18:50:25.563Z,45.81
2023-03-29T18:53:22.567Z,45.96
2023-03-29T18:56:17.959Z,45.89
2023-03-29T18:59:11.726Z,46.00
2023-03-29T19:02:57.895Z,46.30
2023-03-29T19:06:04.173Z,46.21
2023-03-29T19:09:02.375Z,46.41
2023-03-29T19:13:07.527Z,46.49
2023-03-29T19:16:12.424Z,46.51
2023-03-29T19:19:12.594Z,46.62
2023-03-29T19:22:40.347Z,46.80
2023-03-29T19:25:44.633Z,46.83
2023-03-29T19:28:38.597Z,46.73
2023-03-29T19:31:42.108Z,46.95
2023-03-29T19:34:41.061Z,46.99
2023-03-29T19:37:57.883Z,46.95
2023-03-29T19:41:29.816Z,47.29
2023-03-29T19:44:40.708Z,47.24
2023-03-29T19:48:21.791Z,47.32
2023-03-29T19:51:40.718Z,47.53
2023-03-29T19:54:51.186Z,47.77
2023-03-29T19:57:45.557Z,47.89
2023-03-29T20:04:13.456Z,48.13
2023-03-29T20:07:54.756Z,48.30
2023-03-29T20:11:52.833Z,48.38
2023-03-29T20:15:53.710Z,48.58
2023-03-29T20:27:06.533Z,49.03
2023-03-29T20:33:20.391Z,49.15
2023-03-29T20:36:20.444Z,49.45
2023-03-29T20:39:04.948Z,49.49
2023-03-29T20:42:04.249Z,49.63
2023-03-29T20:45:27.526Z,49.82
2023-03-29T20:48:14.503Z,49.95
2023-03-29T20:50:59.822Z,50.01
2023-03-29T20:53:58.904Z,50.24
2023-03-29T20:56:42.971Z,50.33
2023-03-29T20:59:39.676Z,50.38
2023-03-29T21:02:23.380Z,50.57
2023-03-29T21:05:22.751Z,50.57
2023-03-29T21:08:18.282Z,50.69
2023-03-29T21:11:15.934Z,50.81
2023-03-29T21:14:07.932Z,50.78
2023-03-29T21:17:02.587Z,50.75
2023-03-29T21:19:53.465Z,50.82
2023-03-29T21:22:34.820Z,50.91
2023-03-29T21:25:28.268Z,50.93
2023-03-29T21:28:23.622Z,50.74
2023-03-29T21:31:17.697Z,51.00
2023-03-29T21:34:30.960Z,51.10
2023-03-29T21:37:16.342Z,51.11
2023-03-29T21:40:28.734Z,50.97
2023-03-29T21:43:25.409Z,51.10
2023-03-29T21:46:26.808Z,51.06
2023-03-29T21:52:21.015Z,51.20
2023-03-29T21:55:12.734Z,51.10
2023-03-29T21:58:02.849Z,51.15
2023-03-29T22:00:44.037Z,51.26
2023-03-29T22:03:28.087Z,51.29
2023-03-29T22:06:28.419Z,51.20
2023-03-29T22:09:16.566Z,51.24
2023-03-29T22:12:07.391Z,51.23
2023-03-29T22:15:05.412Z,51.52
2023-03-29T22:17:53.777Z,51.69
2023-03-29T22:20:42.202Z,51.87
2023-03-29T22:23:33.457Z,52.01
2023-03-29T22:26:26.878Z,51.94
2023-03-29T22:29:16.507Z,52.18
2023-03-29T22:31:58.344Z,51.98
2023-03-29T22:35:00.469Z,52.16
2023-03-29T22:37:56.972Z,52.38
2023-03-29T22:40:46.227Z,52.55
2023-03-29T22:43:25.510Z,52.49
2023-03-29T22:46:20.719Z,52.32
2023-03-29T22:49:01.931Z,52.58
2023-03-29T22:51:52.566Z,52.54
2023-03-29T22:54:49.583Z,52.70
2023-03-29T22:57:43.727Z,52.67
2023-03-29T23:01:02.604Z,52.80
2023-03-29T23:04:01.026Z,53.05
2023-03-29T23:06:48.491Z,53.24
2023-03-29T23:09:57.155Z,53.30
2023-03-29T23:15:47.425Z,53.38
2023-03-29T23:18:21.131Z,53.56
2023-03-29T23:20:54.802Z,53.51
2023-03-29T23:23:25.898Z,53.54
2023-03-29T23:25:56.551Z,53.57
2023-03-29T23:28:30.416Z,53.58
2023-03-29T23:31:03.896Z,53.59
2023-03-29T23:33:36.075Z,53.68
2023-03-29T23:36:23.306Z,53.85
2023-03-29T23:39:11.474Z,53.83
2023-03-29T23:41:58.438Z,53.96
2023-03-29T23:44:51.400Z,54.17
2023-03-29T23:47:34.714Z,54.41
2023-03-29T23:50:36.442Z,54.35
2023-03-29T23:53:21.123Z,54.56
2023-03-29T23:56:17.179Z,54.73
